Time;durP1;ratioP1;P1;durP2;ratioP2;P2;SDS_P1;SDS_P2;PMS_P1;PMS_P2;Temp;Humidity;BMP_temperature;BMP_pressure;BME280_temperature;BME280_humidity;BME280_pressure;Samples;Min_cycle;Max_cycle;Signal;HPM_P1;HPM_P2
2022/04/07 00:00:09;;;;;;;2.60;2.40;;;;;;;13.16;57.42;97684.72;4142138;28;20287;-32
2022/04/07 00:02:10;;;;;;;3.60;2.50;;;;;;;13.26;57.10;97680.66;4140078;28;20287;-31
2022/04/07 00:04:12;;;;;;;3.83;2.40;;;;;;;13.43;57.32;97715.53;4140716;28;20319;-33
2022/04/07 00:06:14;;;;;;;2.67;2.47;;;;;;;13.41;57.30;97707.75;4115388;28;20726;-32
2022/04/07 00:08:16;;;;;;;3.67;2.33;;;;;;;13.57;56.53;97693.75;4119724;28;20230;-32
2022/04/07 00:10:18;;;;;;;3.20;2.30;;;;;;;13.14;57.33;97665.44;4136841;28;20280;-32
2022/04/07 00:12:19;;;;;;;2.97;2.40;;;;;;;12.99;57.95;97687.19;4137668;28;20982;-32
2022/04/07 00:14:21;;;;;;;2.77;2.40;;;;;;;12.76;57.97;97671.06;4129626;28;20226;-31
2022/04/07 00:16:23;;;;;;;3.47;2.40;;;;;;;12.49;58.18;97671.34;4133584;28;20287;-33
2022/04/07 00:18:26;;;;;;;2.37;2.00;;;;;;;12.66;58.29;97693.72;4141228;28;20488;-33
2022/04/07 00:20:29;;;;;;;4.33;2.03;;;;;;;12.58;57.82;97654.00;4140366;28;20229;-32
2022/04/07 00:22:31;;;;;;;2.00;1.90;;;;;;;12.70;57.86;97677.25;4137149;28;20734;-33
2022/04/07 00:24:32;;;;;;;2.33;2.13;;;;;;;12.16;58.85;97671.69;4128109;28;20234;-30
2022/04/07 00:26:35;;;;;;;2.47;2.27;;;;;;;12.42;58.62;97695.41;4134800;28;20253;-31
2022/04/07 00:28:37;;;;;;;2.40;2.10;;;;;;;11.30;60.00;97669.47;4140070;28;20554;-32
2022/04/07 00:30:43;;;;;;;5.03;2.17;;;;;;;11.18;59.92;97668.53;4141102;28;20261;-30
2022/04/07 00:32:45;;;;;;;2.60;2.20;;;;;;;12.44;58.32;97684.53;4141375;28;20288;-33
2022/04/07 00:34:49;;;;;;;2.37;2.00;;;;;;;12.29;58.69;97693.69;4141321;28;20288;-33
2022/04/07 00:36:51;;;;;;;3.37;2.30;;;;;;;12.02;59.21;97693.13;4140806;28;20242;-31
2022/04/07 00:38:52;;;;;;;2.77;2.10;;;;;;;12.23;58.56;97667.13;4141182;28;20239;-32
2022/04/07 00:40:54;;;;;;;2.00;1.90;;;;;;;12.08;58.94;97692.28;4135002;28;20233;-32
2022/04/07 00:42:56;;;;;;;2.23;2.03;;;;;;;11.65;60.33;97713.47;4128868;28;20367;-34
2022/04/07 00:44:57;;;;;;;3.23;1.97;;;;;;;11.57;60.13;97673.81;4135104;28;20237;-34
2022/04/07 00:46:59;;;;;;;3.17;2.10;;;;;;;11.67;60.58;97700.75;4116632;28;20320;-32
2022/04/07 00:49:01;;;;;;;3.20;2.00;;;;;;;10.95;61.06;97650.44;4138042;28;20213;-33
2022/04/07 00:51:03;;;;;;;1.80;1.70;;;;;;;11.36;61.30;97705.06;4136131;28;20214;-32
2022/04/07 00:53:06;;;;;;;2.00;1.83;;;;;;;10.18;63.42;97669.72;4127472;28;20625;-32
2022/04/07 00:55:10;;;;;;;1.80;1.70;;;;;;;11.97;60.01;97677.00;4131003;28;20216;-31
2022/04/07 00:57:13;;;;;;;1.80;1.70;;;;;;;11.28;61.85;97698.16;4139948;28;20314;-31
2022/04/07 00:59:16;;;;;;;1.60;1.50;;;;;;;12.16;58.91;97653.06;4135419;28;20722;-34
2022/04/07 01:01:23;;;;;;;1.80;1.70;;;;;;;12.52;58.01;97656.75;4137461;28;20504;-32
2022/04/07 01:03:25;;;;;;;1.83;1.73;;;;;;;12.25;58.73;97627.72;4128959;28;20234;-31
2022/04/07 01:05:27;;;;;;;2.20;1.93;;;;;;;12.28;58.68;97640.63;4135033;28;20236;-33
2022/04/07 01:07:29;;;;;;;2.17;2.07;;;;;;;12.28;58.72;97649.41;4139556;28;20299;-32
2022/04/07 01:09:31;;;;;;;2.30;1.77;;;;;;;11.59;60.43;97659.25;4135116;28;20260;-34
2022/04/07 01:11:34;;;;;;;2.90;1.60;;;;;;;11.92;59.99;97679.50;4127830;28;20460;-31
2022/04/07 01:13:52;;;;;;;1.80;1.70;;;;;;;12.08;59.20;97656.81;4139893;28;20233;-31
2022/04/07 01:15:54;;;;;;;1.77;1.67;;;;;;;12.18;58.95;97643.78;4140487;28;20264;-32
2022/04/07 01:17:58;;;;;;;1.87;1.77;;;;;;;12.07;58.96;97640.00;4131725;28;20317;-31
2022/04/07 01:20:01;;;;;;;1.70;1.60;;;;;;;12.09;58.98;97639.78;4138650;28;20225;-30
2022/04/07 01:22:03;;;;;;;2.03;1.93;;;;;;;12.48;58.47;97661.72;4140703;28;20237;-32
2022/04/07 01:24:07;;;;;;;2.20;1.77;;;;;;;12.18;59.06;97657.09;4140640;28;20299;-31
2022/04/07 01:26:10;;;;;;;2.10;2.00;;;;;;;12.09;59.04;97637.13;4135537;28;20611;-33
2022/04/07 01:28:11;;;;;;;2.17;1.97;;;;;;;11.89;61.10;97666.63;4140383;28;20245;-33
2022/04/07 01:30:13;;;;;;;2.07;1.90;;;;;;;11.79;62.43;97679.56;4125319;28;20233;-33
2022/04/07 01:32:23;;;;;;;2.30;1.80;;;;;;;12.22;61.40;97630.88;4122835;28;20226;-31
2022/04/07 01:34:26;;;;;;;1.90;1.80;;;;;;;11.95;62.43;97660.44;4132654;28;20313;-34
2022/04/07 01:36:29;;;;;;;2.43;1.80;;;;;;;11.41;64.09;97661.84;4125992;28;20841;-31
2022/04/07 01:38:31;;;;;;;3.07;1.90;;;;;;;11.92;63.05;97635.03;4127661;28;20230;-31
2022/04/07 01:40:35;;;;;;;1.90;1.80;;;;;;;11.95;63.19;97640.94;4120406;28;20237;-31
2022/04/07 01:42:38;;;;;;;1.83;1.73;;;;;;;11.84;63.10;97629.16;4128574;28;20278;-37
2022/04/07 01:44:54;;;;;;;1.73;1.63;;;;;;;11.52;64.85;97669.13;4125247;28;20880;-30
2022/04/07 01:46:57;;;;;;;1.97;1.87;;;;;;;11.83;63.90;97646.16;4103083;28;20300;-30
2022/04/07 01:49:01;;;;;;;2.20;2.00;;;;;;;11.84;63.18;97621.16;4137316;28;20237;-33
2022/04/07 01:51:02;;;;;;;2.23;2.07;;;;;;;9.58;67.42;97605.25;4134623;28;20549;-31
2022/04/07 01:53:05;;;;;;;2.27;2.03;;;;;;;11.40;65.65;97633.63;4126714;28;20257;-31
2022/04/07 01:55:08;;;;;;;2.17;1.97;;;;;;;11.62;64.21;97604.78;4131969;28;20213;-33
2022/04/07 01:57:10;;;;;;;2.07;1.97;;;;;;;12.18;62.69;97595.03;4139727;28;20299;-33
2022/04/07 01:59:13;;;;;;;2.20;1.80;;;;;;;11.99;63.06;97610.19;4140038;28;20209;-33
2022/04/07 02:01:15;;;;;;;1.90;1.80;;;;;;;11.84;62.85;97582.06;4135063;28;20315;-32
2022/04/07 02:03:17;;;;;;;1.77;1.63;;;;;;;12.23;62.62;97609.28;4138992;28;20242;-31
2022/04/07 02:05:19;;;;;;;2.13;1.93;;;;;;;11.54;64.21;97614.66;4140271;28;20283;-31
2022/04/07 02:07:21;;;;;;;2.17;2.00;;;;;;;11.38;64.48;97617.88;4132466;28;20267;-32
2022/04/07 02:09:23;;;;;;;2.20;2.00;;;;;;;11.65;64.22;97618.47;4138784;28;20667;-32
2022/04/07 02:11:24;;;;;;;2.73;2.00;;;;;;;11.40;65.29;97646.91;4140327;28;20235;-35
2022/04/07 02:13:26;;;;;;;2.73;1.90;;;;;;;11.60;64.73;97636.13;4131581;28;20585;-31
2022/04/07 02:15:28;;;;;;;2.23;2.10;;;;;;;11.44;63.79;97586.91;4122270;28;20608;-33
2022/04/07 02:17:30;;;;;;;2.23;2.03;;;;;;;11.18;65.74;97639.28;4128188;28;20268;-32
2022/04/07 02:19:32;;;;;;;2.43;1.80;;;;;;;12.11;62.59;97568.47;4127391;28;20232;-32
2022/04/07 02:21:34;;;;;;;2.00;1.90;;;;;;;11.09;64.31;97572.25;4137534;28;20266;-31
2022/04/07 02:23:42;;;;;;;2.97;2.30;;;;;;;11.95;63.29;97588.53;4129329;28;20261;-33
2022/04/07 02:25:44;;;;;;;2.13;1.97;;;;;;;10.79;66.01;97606.59;4128186;28;20241;-31
2022/04/07 02:27:45;;;;;;;2.33;1.87;;;;;;;10.73;67.15;97644.59;4134409;28;20288;-31
2022/04/07 02:29:47;;;;;;;2.70;1.70;;;;;;;10.63;66.66;97629.94;4130026;28;20232;-32
2022/04/07 02:31:49;;;;;;;2.17;2.00;;;;;;;11.86;62.90;97560.53;4123316;28;20244;-31
2022/04/07 02:33:51;;;;;;;1.93;1.83;;;;;;;12.00;62.90;97583.34;4131660;28;21019;-31
2022/04/07 02:35:52;;;;;;;3.17;2.00;;;;;;;10.67;66.55;97609.06;4139237;28;20987;-30
2022/04/07 02:37:54;;;;;;;2.70;1.90;;;;;;;11.63;64.05;97571.78;4138159;28;20232;-30
2022/04/07 02:39:56;;;;;;;2.10;2.00;;;;;;;11.59;63.75;97586.56;4134415;28;20233;-33
2022/04/07 02:41:58;;;;;;;2.17;1.93;;;;;;;12.05;62.53;97559.53;4122452;28;20238;-32
2022/04/07 02:44:02;;;;;;;2.00;1.73;;;;;;;11.96;62.39;97566.16;4123649;28;20763;-33
2022/04/07 02:46:04;;;;;;;1.90;1.80;;;;;;;11.52;63.23;97560.00;4132518;28;20232;-32
2022/04/07 02:48:06;;;;;;;2.67;2.47;;;;;;;10.82;64.63;97550.34;4125488;28;20230;-33
2022/04/07 02:50:08;;;;;;;2.10;1.90;;;;;;;11.22;64.07;97576.63;4126952;28;20240;-32
2022/04/07 02:52:11;;;;;;;1.90;1.70;;;;;;;10.60;64.97;97547.97;4133436;28;20683;-36
2022/04/07 02:54:13;;;;;;;1.70;1.60;;;;;;;10.57;67.06;97616.69;4138585;28;20237;-31
2022/04/07 02:56:15;;;;;;;1.93;1.80;;;;;;;10.18;66.77;97562.69;4131733;28;20303;-34
2022/04/07 02:58:16;;;;;;;1.70;1.60;;;;;;;11.77;62.73;97525.38;4124234;28;20707;-34
2022/04/07 03:00:18;;;;;;;1.90;1.80;;;;;;;11.82;62.67;97536.16;4131240;28;20243;-33
2022/04/07 03:02:20;;;;;;;2.63;1.90;;;;;;;10.77;64.04;97516.41;4138271;28;20862;-32
2022/04/07 03:04:24;;;;;;;2.30;2.10;;;;;;;10.51;65.97;97575.81;4137844;28;20292;-32
2022/04/07 03:06:26;;;;;;;1.83;1.73;;;;;;;11.15;64.89;97570.56;4137535;28;20275;-31
2022/04/07 03:08:27;;;;;;;2.10;1.90;;;;;;;11.38;63.92;97564.66;4137159;28;20292;-32
2022/04/07 03:10:29;;;;;;;1.77;1.67;;;;;;;11.47;63.15;97519.94;4139103;28;20251;-34
2022/04/07 03:12:31;;;;;;;1.93;1.80;;;;;;;11.54;63.60;97539.31;4129810;28;20234;-34
2022/04/07 03:14:32;;;;;;;1.90;1.80;;;;;;;10.52;65.83;97553.53;4126637;28;20252;-32
2022/04/07 03:16:34;;;;;;;2.73;1.67;;;;;;;11.30;63.85;97525.00;4137480;28;20229;-31
2022/04/07 03:18:36;;;;;;;1.80;1.70;;;;;;;10.88;64.30;97512.25;4137026;28;20933;-31
2022/04/07 03:20:38;;;;;;;2.57;2.00;;;;;;;11.58;63.09;97521.06;4133346;28;20922;-32
2022/04/07 03:22:40;;;;;;;1.67;1.57;;;;;;;10.40;63.90;97462.25;4134014;28;20859;-31
2022/04/07 03:24:41;;;;;;;2.13;2.03;;;;;;;11.77;62.29;97504.06;4138539;28;20229;-32
2022/04/07 03:26:43;;;;;;;3.20;1.80;;;;;;;11.79;62.19;97511.84;4138746;28;20755;-30
2022/04/07 03:28:46;;;;;;;2.37;1.43;;;;;;;11.27;63.23;97536.88;4136287;28;20269;-33
2022/04/07 03:30:47;;;;;;;2.20;2.10;;;;;;;10.91;63.95;97538.41;4134885;28;20961;-35
2022/04/07 03:32:49;;;;;;;1.83;1.73;;;;;;;11.82;61.46;97504.22;4138468;28;20238;-34
2022/04/07 03:34:51;;;;;;;2.93;1.93;;;;;;;12.24;60.95;97501.69;4139368;28;20229;-31
2022/04/07 03:36:53;;;;;;;1.77;1.67;;;;;;;11.42;63.35;97525.91;4139507;28;20237;-31
2022/04/07 03:38:54;;;;;;;3.17;2.17;;;;;;;11.63;62.96;97540.66;4139088;28;20291;-32
2022/04/07 03:40:56;;;;;;;1.97;1.60;;;;;;;12.12;61.18;97498.19;4137626;28;20227;-35
2022/04/07 03:42:58;;;;;;;1.60;1.50;;;;;;;11.28;63.39;97495.97;4137695;28;20254;-33
2022/04/07 03:45:00;;;;;;;1.70;1.60;;;;;;;10.74;63.95;97484.09;4138733;28;20270;-32
2022/04/07 03:47:02;;;;;;;2.30;1.80;;;;;;;11.20;64.77;97552.09;4142281;28;20744;-31
2022/04/07 03:49:03;;;;;;;1.43;1.40;;;;;;;11.81;62.55;97515.91;4143644;28;20658;-30
2022/04/07 03:51:05;;;;;;;1.70;1.60;;;;;;;11.55;63.12;97501.84;4134215;28;20214;-32
2022/04/07 03:53:07;;;;;;;2.00;1.83;;;;;;;11.76;62.52;97489.13;4135084;28;20202;-31
2022/04/07 03:55:10;;;;;;;2.20;2.10;;;;;;;11.85;62.34;97493.16;4142166;28;20210;-32
2022/04/07 03:57:11;;;;;;;2.03;1.83;;;;;;;11.02;64.06;97496.19;4141352;28;20244;-31
2022/04/07 03:59:13;;;;;;;2.40;2.20;;;;;;;10.38;65.53;97498.81;4140306;28;20244;-31
2022/04/07 04:01:15;;;;;;;1.80;1.70;;;;;;;10.86;65.14;97524.94;4135236;28;20229;-34
2022/04/07 04:03:17;;;;;;;1.70;1.60;;;;;;;10.32;65.46;97492.53;4132675;28;20284;-32
2022/04/07 04:05:19;;;;;;;2.20;1.83;;;;;;;11.44;63.82;97488.44;4140429;28;20252;-33
2022/04/07 04:07:21;;;;;;;1.63;1.60;;;;;;;10.20;67.18;97529.56;4139352;28;20737;-34
2022/04/07 04:09:23;;;;;;;1.60;1.50;;;;;;;10.67;66.28;97533.81;4126599;28;20698;-34
2022/04/07 04:11:24;;;;;;;1.83;1.73;;;;;;;10.58;64.61;97478.28;4117648;28;20318;-31
2022/04/07 04:13:28;;;;;;;1.70;1.60;;;;;;;11.38;64.02;97497.31;4100894;28;20260;-32
2022/04/07 04:15:30;;;;;;;1.97;1.87;;;;;;;10.50;65.35;97494.47;4124837;28;20233;-34
2022/04/07 04:17:33;;;;;;;1.70;1.60;;;;;;;11.28;63.69;97492.50;4130197;28;20246;-32
2022/04/07 04:19:34;;;;;;;1.90;1.80;;;;;;;10.86;65.60;97518.81;4126724;28;20238;-30
2022/04/07 04:21:37;;;;;;;1.80;1.70;;;;;;;11.26;64.85;97489.25;4135271;28;20647;-30
2022/04/07 04:23:40;;;;;;;3.33;1.90;;;;;;;10.47;67.22;97515.34;4141297;28;20237;-30
2022/04/07 04:25:41;;;;;;;1.90;1.70;;;;;;;10.77;66.61;97507.63;4135225;28;20241;-33
2022/04/07 04:27:43;;;;;;;2.03;1.93;;;;;;;10.62;67.66;97523.84;4142025;28;20247;-31
2022/04/07 04:29:45;;;;;;;2.17;2.00;;;;;;;9.92;66.89;97433.50;4144608;28;20437;-31
2022/04/07 04:31:46;;;;;;;2.90;2.03;;;;;;;9.68;69.28;97467.69;4138472;28;20280;-33
2022/04/07 04:33:48;;;;;;;3.60;2.00;;;;;;;9.84;69.04;97491.13;4141637;28;20229;-32
2022/04/07 04:35:50;;;;;;;2.10;2.00;;;;;;;9.01;71.48;97481.00;4135578;28;20242;-30
2022/04/07 04:37:52;;;;;;;2.30;2.03;;;;;;;9.69;70.24;97490.56;4134480;28;20252;-30
2022/04/07 04:39:54;;;;;;;2.23;1.97;;;;;;;11.03;65.95;97440.13;4134494;28;20283;-34
2022/04/07 04:41:56;;;;;;;2.23;2.00;;;;;;;9.96;68.98;97474.50;4132493;28;20233;-31
2022/04/07 04:44:00;;;;;;;1.80;1.70;;;;;;;10.76;67.38;97474.09;4132207;28;20230;-33
2022/04/07 04:46:02;;;;;;;2.73;2.00;;;;;;;11.21;65.03;97411.91;4140789;28;20248;-32
2022/04/07 04:48:04;;;;;;;2.63;1.90;;;;;;;10.05;67.94;97457.31;4132412;28;20259;-31
2022/04/07 04:50:07;;;;;;;3.13;1.63;;;;;;;10.98;66.50;97448.75;4133471;28;20816;-33
2022/04/07 04:52:10;;;;;;;2.03;1.93;;;;;;;11.06;65.83;97444.22;4139656;28;20237;-32
2022/04/07 04:54:13;;;;;;;1.90;1.80;;;;;;;10.28;68.90;97504.63;4140884;28;20233;-31
2022/04/07 04:56:15;;;;;;;1.70;1.60;;;;;;;11.57;65.32;97440.41;4134785;28;20233;-33
2022/04/07 04:58:16;;;;;;;2.37;2.17;;;;;;;12.13;62.95;97387.91;4131061;28;21463;-33
2022/04/07 05:02:34;;;;;;;2.20;2.00;;;;;;;8.82;73.97;97476.53;4201877;27;20581;-63
2022/04/07 05:04:36;;;;;;;2.80;2.60;;;;;;;9.28;71.72;97449.19;4191719;28;20243;-63
2022/04/07 05:06:38;;;;;;;2.50;2.10;;;;;;;10.16;68.65;97387.63;4197347;28;20317;-63
2022/04/07 05:08:40;;;;;;;2.57;1.80;;;;;;;9.32;71.51;97427.34;4195717;28;20239;-63
2022/04/07 05:10:41;;;;;;;2.10;1.90;;;;;;;10.34;67.16;97346.22;4190557;28;20326;-63
2022/04/07 05:12:43;;;;;;;1.80;1.70;;;;;;;9.87;69.81;97400.44;4196058;28;20270;-62
2022/04/07 05:14:45;;;;;;;2.33;2.13;;;;;;;8.91;71.50;97412.53;4194761;28;20526;-63
2022/04/07 05:16:46;;;;;;;1.90;1.80;;;;;;;10.13;68.64;97374.78;4184474;28;20311;-63
2022/04/07 05:18:49;;;;;;;1.80;1.70;;;;;;;9.07;71.67;97413.13;4187271;28;20237;-63
2022/04/07 05:20:50;;;;;;;4.43;1.70;;;;;;;8.20;74.02;97386.59;4196292;28;20322;-63
2022/04/07 05:22:52;;;;;;;2.00;1.90;;;;;;;9.38;71.26;97375.28;4183265;23;20680;-35
2022/04/07 05:24:54;;;;;;;1.83;1.73;;;;;;;9.85;69.90;97362.66;4158738;28;20641;-33
2022/04/07 05:26:55;;;;;;;1.93;1.83;;;;;;;8.73;73.31;97417.66;4160097;28;20279;-34
2022/04/07 05:28:57;;;;;;;3.33;1.77;;;;;;;9.17;71.47;97371.09;4156806;28;20650;-32
2022/04/07 05:30:59;;;;;;;1.70;1.60;;;;;;;9.30;71.65;97400.22;4156520;28;20216;-30
2022/04/07 05:33:01;;;;;;;2.07;1.87;;;;;;;9.66;70.61;97377.66;4156303;28;20621;-33
2022/04/07 05:35:03;;;;;;;2.30;2.00;;;;;;;10.10;69.57;97375.19;4153045;28;20278;-36
2022/04/07 05:37:04;;;;;;;2.17;1.97;;;;;;;10.29;69.15;97365.47;4157166;28;20232;-32
2022/04/07 05:39:06;;;;;;;2.20;2.10;;;;;;;9.10;71.86;97388.84;4156258;28;20255;-33
2022/04/07 05:41:08;;;;;;;2.93;1.90;;;;;;;9.99;69.73;97366.09;4156818;28;20510;-32
2022/04/07 05:43:09;;;;;;;2.00;1.90;;;;;;;8.91;73.05;97409.06;4160479;28;20255;-33
2022/04/07 05:45:11;;;;;;;2.20;2.00;;;;;;;9.45;70.84;97357.53;4158095;28;20231;-32
2022/04/07 05:47:13;;;;;;;2.10;1.90;;;;;;;9.81;70.16;97353.50;4154092;28;20225;-34
2022/04/07 05:49:15;;;;;;;1.93;1.83;;;;;;;9.09;72.63;97385.38;4155206;28;20537;-34
2022/04/07 05:51:16;;;;;;;2.20;1.73;;;;;;;9.60;72.95;97390.97;4156026;28;20752;-31
2022/04/07 05:53:18;;;;;;;3.53;1.60;;;;;;;9.37;73.17;97394.91;4156070;28;20233;-33
2022/04/07 05:55:20;;;;;;;3.23;1.80;;;;;;;10.52;70.12;97362.22;4154449;28;20682;-31
2022/04/07 05:57:26;;;;;;;1.70;1.60;;;;;;;9.33;73.03;97336.16;4161261;28;20689;-36
2022/04/07 05:59:28;;;;;;;3.37;1.67;;;;;;;9.87;71.99;97312.03;4160310;28;20240;-31
2022/04/07 06:01:30;;;;;;;1.60;1.50;;;;;;;8.69;77.85;97397.88;4154764;28;20237;-33
2022/04/07 06:03:32;;;;;;;1.60;1.50;;;;;;;8.45;77.95;97378.91;4154757;28;20552;-33
2022/04/07 06:05:35;;;;;;;1.90;1.80;;;;;;;9.23;76.84;97382.69;4155480;28;20521;-35
2022/04/07 06:07:37;;;;;;;2.60;1.90;;;;;;;9.72;74.45;97338.84;4155269;28;20245;-35
2022/04/07 06:09:39;;;;;;;2.13;1.97;;;;;;;8.57;78.22;97342.03;4155508;28;20279;-35
2022/04/07 06:11:40;;;;;;;1.77;1.63;;;;;;;8.49;78.77;97352.84;4151928;28;20282;-34
2022/04/07 06:13:43;;;;;;;1.50;1.50;;;;;;;9.20;77.34;97340.69;4142685;28;20233;-37
2022/04/07 06:15:46;;;;;;;1.70;1.60;;;;;;;8.68;79.70;97385.66;4144954;28;20292;-34
2022/04/07 06:17:48;;;;;;;1.40;1.40;;;;;;;8.01;81.29;97398.78;4142356;28;20237;-33
2022/04/07 06:19:50;;;;;;;2.00;1.90;;;;;;;8.44;79.23;97344.69;4143357;28;20287;-31
2022/04/07 06:21:52;;;;;;;2.30;1.67;;;;;;;9.02;77.66;97296.31;4144564;28;20615;-31
2022/04/07 06:23:54;;;;;;;1.70;1.60;;;;;;;8.68;78.23;97300.88;4143272;28;20745;-37
2022/04/07 06:25:56;;;;;;;1.77;1.67;;;;;;;9.06;76.44;97279.75;4141982;28;20288;-35
2022/04/07 06:27:59;;;;;;;1.87;1.77;;;;;;;9.87;75.48;97286.31;4144621;28;20241;-33
2022/04/07 06:30:01;;;;;;;1.57;1.50;;;;;;;8.57;79.45;97356.09;4144341;28;20237;-34
2022/04/07 06:32:03;;;;;;;1.80;1.60;;;;;;;8.87;77.60;97289.41;4137456;28;24127;-33
2022/04/07 06:34:05;;;;;;;2.10;2.00;;;;;;;9.39;74.82;97239.03;4144586;28;20264;-35
2022/04/07 06:36:09;;;;;;;1.70;1.60;;;;;;;9.34;76.27;97289.25;4145006;28;20649;-33
2022/04/07 06:38:11;;;;;;;1.40;1.40;;;;;;;8.99;76.49;97278.97;4144489;28;20242;-35
2022/04/07 06:40:12;;;;;;;1.90;1.80;;;;;;;8.93;77.35;97288.56;4145065;28;20237;-33
2022/04/07 06:42:15;;;;;;;1.67;1.57;;;;;;;8.61;80.20;97316.78;4145871;28;20241;-31
2022/04/07 06:44:19;;;;;;;2.00;1.80;;;;;;;8.50;79.48;97275.81;4144231;28;20241;-36
2022/04/07 06:46:20;;;;;;;1.40;1.30;;;;;;;9.78;75.51;97228.41;4142976;28;20228;-33
2022/04/07 06:48:22;;;;;;;4.40;1.70;;;;;;;9.64;76.42;97241.75;4144168;28;20244;-33
2022/04/07 06:50:25;;;;;;;1.73;1.63;;;;;;;9.64;76.29;97246.25;4144645;28;20243;-37
2022/04/07 06:52:28;;;;;;;1.50;1.40;;;;;;;9.50;75.18;97230.41;4143419;28;20241;-35
2022/04/07 06:54:30;;;;;;;1.60;1.50;;;;;;;8.76;78.73;97285.56;4144761;28;20241;-32
2022/04/07 06:56:31;;;;;;;2.17;1.60;;;;;;;9.44;78.16;97265.72;4143676;28;20295;-33
2022/04/07 06:58:33;;;;;;;4.20;1.77;;;;;;;8.66;79.59;97258.69;4138287;28;20287;-36
2022/04/07 07:00:41;;;;;;;2.40;2.20;;;;;;;9.16;78.37;97250.16;4143828;28;20233;-32
2022/04/07 07:02:54;;;;;;;1.83;1.60;;;;;;;8.78;79.55;97261.50;4142240;28;20228;-32
2022/04/07 07:04:56;;;;;;;3.13;1.70;;;;;;;9.54;77.99;97244.03;4144548;28;20287;-32
2022/04/07 07:06:58;;;;;;;1.50;1.50;;;;;;;9.56;76.82;97223.41;4144325;28;20279;-35
2022/04/07 07:09:00;;;;;;;2.60;1.73;;;;;;;8.99;79.62;97268.38;4140617;28;20233;-34
2022/04/07 07:11:01;;;;;;;1.60;1.50;;;;;;;9.46;77.36;97213.25;4143811;28;20686;-36
2022/04/07 07:13:03;;;;;;;1.90;1.70;;;;;;;10.06;74.71;97180.19;4142947;28;20232;-35
2022/04/07 07:15:05;;;;;;;1.77;1.67;;;;;;;8.94;78.31;97231.06;4143942;28;20264;-34
2022/04/07 07:17:08;;;;;;;1.60;1.50;;;;;;;9.70;75.83;97189.66;4144444;28;20229;-36
2022/04/07 07:19:10;;;;;;;1.90;1.80;;;;;;;9.44;77.70;97219.81;4143646;28;20295;-34
2022/04/07 07:21:12;;;;;;;1.50;1.40;;;;;;;9.24;77.58;97204.84;4144455;28;20283;-33
2022/04/07 07:23:15;;;;;;;1.90;1.80;;;;;;;9.90;76.07;97188.69;4144090;28;20637;-33
2022/04/07 07:25:17;;;;;;;1.77;1.67;;;;;;;10.55;73.32;97177.63;4143283;28;20279;-35
2022/04/07 07:27:19;;;;;;;2.00;1.63;;;;;;;10.76;72.71;97147.16;4144080;28;20233;-34
2022/04/07 07:29:20;;;;;;;1.53;1.43;;;;;;;9.45;76.79;97214.31;4142747;28;20296;-36
2022/04/07 07:31:22;;;;;;;2.57;1.70;;;;;;;10.51;72.86;97158.66;4144430;28;20241;-32
2022/04/07 07:33:24;;;;;;;2.23;2.03;;;;;;;9.18;76.39;97154.50;4143442;28;20249;-35
2022/04/07 07:35:26;;;;;;;1.70;1.60;;;;;;;9.95;74.53;97167.63;4140005;28;20229;-36
2022/04/07 07:37:28;;;;;;;2.07;1.50;;;;;;;9.44;76.54;97202.06;4144305;28;20225;-34
2022/04/07 07:39:29;;;;;;;1.40;1.30;;;;;;;10.21;74.15;97171.84;4140297;28;20287;-32
2022/04/07 07:41:31;;;;;;;3.47;1.77;;;;;;;9.64;75.36;97172.78;4141744;28;20236;-33
2022/04/07 07:43:33;;;;;;;3.03;1.50;;;;;;;9.72;74.62;97141.69;4141816;28;20234;-31
2022/04/07 07:45:35;;;;;;;2.20;1.97;;;;;;;9.82;75.26;97172.03;4142833;28;20248;-32
2022/04/07 07:47:57;;;;;;;1.90;1.80;;;;;;;9.74;72.91;97132.50;4144648;28;20313;-37
2022/04/07 07:49:59;;;;;;;1.50;1.40;;;;;;;10.88;70.92;97145.34;4143997;28;20288;-34
2022/04/07 07:52:01;;;;;;;3.23;2.20;;;;;;;10.12;71.68;97093.53;4144201;28;20228;-33
2022/04/07 07:54:02;;;;;;;1.97;1.60;;;;;;;10.46;71.68;97109.88;4143546;28;20769;-33
2022/04/07 07:56:04;;;;;;;1.60;1.50;;;;;;;10.96;70.69;97110.50;4135928;28;20295;-34
2022/04/07 07:58:06;;;;;;;1.70;1.60;;;;;;;10.20;72.36;97079.97;4155808;28;20259;-36
2022/04/07 08:00:10;;;;;;;2.43;2.20;;;;;;;10.40;72.55;97114.25;4143403;28;20225;-35
2022/04/07 08:02:11;;;;;;;2.17;2.00;;;;;;;11.09;70.05;97113.97;4143360;28;20245;-31
2022/04/07 08:04:16;;;;;;;3.13;1.70;;;;;;;10.12;72.85;97126.19;4142572;28;20248;-35
2022/04/07 08:06:18;;;;;;;1.40;1.40;;;;;;;11.14;70.01;97106.16;4143271;28;20588;-32
2022/04/07 08:08:19;;;;;;;1.80;1.70;;;;;;;9.61;73.56;97112.19;4140402;28;20602;-34
2022/04/07 08:10:22;;;;;;;2.00;1.80;;;;;;;11.39;68.35;97084.69;4140585;28;20793;-37
2022/04/07 08:12:25;;;;;;;3.10;1.70;;;;;;;10.31;70.90;97075.75;4142912;28;20231;-36
2022/04/07 08:14:26;;;;;;;1.47;1.40;;;;;;;10.77;69.28;97100.97;4142743;28;20239;-35
2022/04/07 08:16:30;;;;;;;2.00;1.70;;;;;;;10.48;70.65;97131.72;4142948;28;20295;-32
2022/04/07 08:18:32;;;;;;;1.60;1.50;;;;;;;11.40;68.20;97110.25;4140690;28;20650;-35
2022/04/07 08:20:33;;;;;;;1.50;1.40;;;;;;;9.93;72.27;97140.50;4142902;28;20272;-35
2022/04/07 08:22:35;;;;;;;3.90;2.00;;;;;;;11.46;67.16;97073.94;4139339;28;20286;-32
2022/04/07 08:24:37;;;;;;;2.10;1.90;;;;;;;11.17;68.71;97133.13;4148732;28;20276;-35
2022/04/07 08:26:38;;;;;;;2.27;1.47;;;;;;;10.70;68.37;97095.69;4138919;28;20234;-34
2022/04/07 08:28:40;;;;;;;1.80;1.70;;;;;;;10.63;71.11;97143.63;4142852;28;20233;-36
2022/04/07 08:30:45;;;;;;;1.97;1.50;;;;;;;11.28;68.48;97106.78;4141998;28;20237;-35
2022/04/07 08:32:46;;;;;;;1.60;1.50;;;;;;;10.96;68.68;97083.91;4140188;28;20258;-37
2022/04/07 08:34:48;;;;;;;1.60;1.50;;;;;;;10.57;70.53;97109.16;4136938;28;20786;-35
2022/04/07 08:36:49;;;;;;;2.50;1.40;;;;;;;10.49;71.05;97094.31;4142489;28;20258;-33
2022/04/07 08:38:51;;;;;;;1.80;1.60;;;;;;;10.91;70.31;97113.00;4142775;28;20232;-37
2022/04/07 08:40:55;;;;;;;1.57;1.47;;;;;;;10.00;71.82;97099.56;4141484;28;20271;-35
2022/04/07 08:42:57;;;;;;;2.53;1.73;;;;;;;10.42;73.09;97147.53;4139847;28;20275;-33
2022/04/07 08:44:59;;;;;;;1.90;1.80;;;;;;;10.61;72.22;97097.03;4142966;28;20432;-32
2022/04/07 08:47:01;;;;;;;1.53;1.43;;;;;;;10.57;72.03;97098.53;4142563;28;20344;-32
2022/04/07 08:49:05;;;;;;;1.67;1.57;;;;;;;11.30;70.90;97131.28;4142464;28;20275;-37
2022/04/07 08:51:06;;;;;;;2.33;2.00;;;;;;;10.79;73.00;97120.94;4142562;28;20225;-34
2022/04/07 08:53:10;;;;;;;16.77;7.27;;;;;;;10.15;73.47;97085.13;4142767;28;20714;-33
2022/04/07 08:55:11;;;;;;;2.77;2.20;;;;;;;11.49;71.32;97103.56;4142592;28;20240;-36
2022/04/07 08:57:14;;;;;;;2.70;1.63;;;;;;;9.75;75.06;97093.50;4142190;28;20481;-39
2022/04/07 08:59:17;;;;;;;1.83;1.73;;;;;;;9.98;75.68;97109.59;4146648;28;20228;-35
2022/04/07 09:01:19;;;;;;;1.90;1.80;;;;;;;10.91;73.67;97101.56;4151022;28;20229;-34
2022/04/07 09:03:20;;;;;;;1.70;1.60;;;;;;;11.33;72.27;97085.63;4156534;28;20231;-36
2022/04/07 09:05:24;;;;;;;1.70;1.60;;;;;;;10.70;74.40;97132.91;4151913;28;20612;-37
2022/04/07 09:07:33;;;;;;;1.67;1.57;;;;;;;11.06;74.16;97111.81;4145889;28;20233;-32
2022/04/07 09:09:38;;;;;;;2.43;1.60;;;;;;;9.86;77.00;97106.06;4163437;28;20708;-37
2022/04/07 09:11:40;;;;;;;2.43;2.00;;;;;;;10.28;78.45;97142.56;4152367;28;20261;-34
2022/04/07 09:13:44;;;;;;;2.07;1.93;;;;;;;10.79;74.90;97072.28;4146232;28;20600;-33
2022/04/07 09:15:48;;;;;;;1.60;1.50;;;;;;;10.90;75.19;97114.06;4143043;28;20233;-32
2022/04/07 09:17:56;;;;;;;5.03;3.57;;;;;;;11.49;72.35;97070.81;4142597;28;20247;-36
2022/04/07 09:19:58;;;;;;;8.10;5.47;;;;;;;11.15;75.42;97107.78;4142815;28;20229;-33
2022/04/07 09:22:05;;;;;;;2.30;2.10;;;;;;;11.15;75.04;97113.09;4142930;28;20253;-37
2022/04/07 09:24:07;;;;;;;2.03;1.57;;;;;;;10.42;76.49;97109.53;4147544;28;20774;-35
2022/04/07 09:26:14;;;;;;;1.93;1.50;;;;;;;10.01;78.00;97093.22;4150352;28;20279;-38
2022/04/07 09:28:32;;;;;;;2.37;1.53;;;;;;;10.55;75.31;97066.03;4145239;28;20237;-34
2022/04/07 09:30:38;;;;;;;2.20;1.40;;;;;;;10.11;75.72;97038.78;4156853;28;20278;-33
2022/04/07 09:32:44;;;;;;;2.93;1.50;;;;;;;9.63;76.85;97080.13;4158954;28;20225;-35
2022/04/07 09:34:52;;;;;;;1.83;1.73;;;;;;;11.15;73.88;97046.59;4154107;28;20235;-33
2022/04/07 09:37:08;;;;;;;2.70;1.70;;;;;;;10.25;74.54;97013.72;4137574;28;20278;-35
2022/04/07 09:39:10;;;;;;;3.27;1.80;;;;;;;10.21;76.02;97055.00;4155029;28;20248;-33
2022/04/07 09:41:13;;;;;;;3.17;1.60;;;;;;;11.58;72.22;97045.50;4154549;28;20677;-38